sensor_id;sensor_type;location;lat;lon;timestamp;temperature;humidity
6988;DHT22;3534;49.960;8.018;2024-01-16T00:02:16;2.50;99.90
6988;DHT22;3534;49.960;8.018;2024-01-16T00:04:44;2.50;99.90
6988;DHT22;3534;49.960;8.018;2024-01-16T00:07:10;2.50;99.90
6988;DHT22;3534;49.960;8.018;2024-01-16T00:09:37;2.50;99.90
6988;DHT22;3534;49.960;8.018;2024-01-16T00:12:04;2.50;99.90
6988;DHT22;3534;49.960;8.018;2024-01-16T00:14:35;2.50;99.90
6988;DHT22;3534;49.960;8.018;2024-01-16T00:17:02;2.50;99.90
6988;DHT22;3534;49.960;8.018;2024-01-16T00:19:28;2.50;99.90
6988;DHT22;3534;49.960;8.018;2024-01-16T00:21:56;2.60;99.90
6988;DHT22;3534;49.960;8.018;2024-01-16T00:24:23;2.60;99.90
6988;DHT22;3534;49.960;8.018;2024-01-16T00:26:50;2.60;99.90
6988;DHT22;3534;49.960;8.018;2024-01-16T00:29:17;2.60;99.90
6988;DHT22;3534;49.960;8.018;2024-01-16T00:31:43;2.60;99.90
6988;DHT22;3534;49.960;8.018;2024-01-16T00:34:10;2.60;99.90
6988;DHT22;3534;49.960;8.018;2024-01-16T00:36:36;2.60;99.90
6988;DHT22;3534;49.960;8.018;2024-01-16T00:39:04;2.60;99.90
6988;DHT22;3534;49.960;8.018;2024-01-16T00:41:32;2.60;99.90
6988;DHT22;3534;49.960;8.018;2024-01-16T00:43:59;2.60;99.90
6988;DHT22;3534;49.960;8.018;2024-01-16T00:46:26;2.60;99.90
6988;DHT22;3534;49.960;8.018;2024-01-16T00:48:52;2.60;99.90
6988;DHT22;3534;49.960;8.018;2024-01-16T00:51:19;2.70;99.90
6988;DHT22;3534;49.960;8.018;2024-01-16T00:53:45;2.70;99.90
6988;DHT22;3534;49.960;8.018;2024-01-16T00:56:13;2.70;99.90
6988;DHT22;3534;49.960;8.018;2024-01-16T00:58:40;2.70;99.90
6988;DHT22;3534;49.960;8.018;2024-01-16T01:01:07;2.70;99.90
6988;DHT22;3534;49.960;8.018;2024-01-16T01:03:34;2.70;99.90
6988;DHT22;3534;49.960;8.018;2024-01-16T01:06:00;2.60;99.90
6988;DHT22;3534;49.960;8.018;2024-01-16T01:08:27;2.60;99.90
6988;DHT22;3534;49.960;8.018;2024-01-16T01:10:54;2.60;99.90
6988;DHT22;3534;49.960;8.018;2024-01-16T01:13:22;2.60;99.90
6988;DHT22;3534;49.960;8.018;2024-01-16T01:15:50;2.60;99.90
6988;DHT22;3534;49.960;8.018;2024-01-16T01:18:17;2.60;99.90
6988;DHT22;3534;49.960;8.018;2024-01-16T01:20:43;2.60;99.90
6988;DHT22;3534;49.960;8.018;2024-01-16T01:23:10;2.60;99.90
6988;DHT22;3534;49.960;8.018;2024-01-16T01:25:37;2.60;99.90
6988;DHT22;3534;49.960;8.018;2024-01-16T01:28:04;2.70;99.90
6988;DHT22;3534;49.960;8.018;2024-01-16T01:30:32;2.60;99.90
6988;DHT22;3534;49.960;8.018;2024-01-16T01:32:58;2.60;99.90
6988;DHT22;3534;49.960;8.018;2024-01-16T01:35:26;2.60;99.90
6988;DHT22;3534;49.960;8.018;2024-01-16T01:37:52;2.60;99.90
6988;DHT22;3534;49.960;8.018;2024-01-16T01:40:19;2.60;99.90
6988;DHT22;3534;49.960;8.018;2024-01-16T01:42:46;2.60;99.90
6988;DHT22;3534;49.960;8.018;2024-01-16T01:45:12;2.60;99.90
6988;DHT22;3534;49.960;8.018;2024-01-16T01:47:41;2.60;99.90
6988;DHT22;3534;49.960;8.018;2024-01-16T01:50:09;2.60;99.90
6988;DHT22;3534;49.960;8.018;2024-01-16T01:52:36;2.60;99.90
6988;DHT22;3534;49.960;8.018;2024-01-16T01:55:04;2.70;99.90
6988;DHT22;3534;49.960;8.018;2024-01-16T01:57:33;2.70;99.90
6988;DHT22;3534;49.960;8.018;2024-01-16T02:00:00;2.70;99.90
6988;DHT22;3534;49.960;8.018;2024-01-16T02:02:27;2.70;99.90
6988;DHT22;3534;49.960;8.018;2024-01-16T02:04:56;2.80;99.90
6988;DHT22;3534;49.960;8.018;2024-01-16T02:07:23;2.80;99.90
6988;DHT22;3534;49.960;8.018;2024-01-16T02:09:51;2.80;99.90
6988;DHT22;3534;49.960;8.018;2024-01-16T02:12:18;2.80;99.90
6988;DHT22;3534;49.960;8.018;2024-01-16T02:14:44;2.80;99.90
6988;DHT22;3534;49.960;8.018;2024-01-16T02:17:11;2.80;99.90
6988;DHT22;3534;49.960;8.018;2024-01-16T02:19:38;2.80;99.90
6988;DHT22;3534;49.960;8.018;2024-01-16T02:22:09;2.80;99.90
6988;DHT22;3534;49.960;8.018;2024-01-16T02:24:39;2.80;99.90
6988;DHT22;3534;49.960;8.018;2024-01-16T02:27:05;2.80;99.90
6988;DHT22;3534;49.960;8.018;2024-01-16T02:29:32;2.80;99.90
6988;DHT22;3534;49.960;8.018;2024-01-16T02:32:00;2.80;99.90
6988;DHT22;3534;49.960;8.018;2024-01-16T02:34:28;2.70;99.90
6988;DHT22;3534;49.960;8.018;2024-01-16T02:36:55;2.70;99.90
6988;DHT22;3534;49.960;8.018;2024-01-16T02:39:22;2.70;99.90
6988;DHT22;3534;49.960;8.018;2024-01-16T02:41:49;2.70;99.90
6988;DHT22;3534;49.960;8.018;2024-01-16T02:44:16;2.70;99.90
6988;DHT22;3534;49.960;8.018;2024-01-16T02:46:43;2.70;99.90
6988;DHT22;3534;49.960;8.018;2024-01-16T02:49:10;2.70;99.90
6988;DHT22;3534;49.960;8.018;2024-01-16T02:51:36;2.70;99.90
6988;DHT22;3534;49.960;8.018;2024-01-16T02:54:06;2.70;99.90
6988;DHT22;3534;49.960;8.018;2024-01-16T02:56:33;2.70;99.90
6988;DHT22;3534;49.960;8.018;2024-01-16T02:59:01;2.70;99.90
6988;DHT22;3534;49.960;8.018;2024-01-16T03:01:28;2.70;99.90
6988;DHT22;3534;49.960;8.018;2024-01-16T03:03:55;2.70;99.90
6988;DHT22;3534;49.960;8.018;2024-01-16T03:06:22;2.70;99.90
6988;DHT22;3534;49.960;8.018;2024-01-16T03:08:49;2.70;99.90
6988;DHT22;3534;49.960;8.018;2024-01-16T03:11:16;2.70;99.90
6988;DHT22;3534;49.960;8.018;2024-01-16T03:13:43;2.70;99.90
6988;DHT22;3534;49.960;8.018;2024-01-16T03:16:12;2.70;99.90
6988;DHT22;3534;49.960;8.018;2024-01-16T03:18:38;2.70;99.90
6988;DHT22;3534;49.960;8.018;2024-01-16T03:21:06;2.70;99.90
6988;DHT22;3534;49.960;8.018;2024-01-16T03:23:33;2.70;99.90
6988;DHT22;3534;49.960;8.018;2024-01-16T03:25:59;2.80;99.90
6988;DHT22;3534;49.960;8.018;2024-01-16T03:28:26;2.80;99.90
6988;DHT22;3534;49.960;8.018;2024-01-16T03:30:53;2.80;99.90
6988;DHT22;3534;49.960;8.018;2024-01-16T03:33:21;2.80;99.90
6988;DHT22;3534;49.960;8.018;2024-01-16T03:35:48;2.80;99.90
6988;DHT22;3534;49.960;8.018;2024-01-16T03:38:15;2.80;99.90
6988;DHT22;3534;49.960;8.018;2024-01-16T03:40:41;2.80;99.90
6988;DHT22;3534;49.960;8.018;2024-01-16T03:43:08;2.70;99.90
6988;DHT22;3534;49.960;8.018;2024-01-16T03:45:35;2.80;99.90
6988;DHT22;3534;49.960;8.018;2024-01-16T03:48:02;2.80;99.90
6988;DHT22;3534;49.960;8.018;2024-01-16T03:50:30;2.80;99.90
6988;DHT22;3534;49.960;8.018;2024-01-16T03:52:57;2.70;99.90
6988;DHT22;3534;49.960;8.018;2024-01-16T03:55:24;2.70;99.90
6988;DHT22;3534;49.960;8.018;2024-01-16T03:57:51;2.70;99.90
6988;DHT22;3534;49.960;8.018;2024-01-16T04:00:17;2.70;99.90
6988;DHT22;3534;49.960;8.018;2024-01-16T04:02:44;2.70;99.90
6988;DHT22;3534;49.960;8.018;2024-01-16T04:05:11;2.70;99.90
6988;DHT22;3534;49.960;8.018;2024-01-16T04:07:39;2.70;99.90
6988;DHT22;3534;49.960;8.018;2024-01-16T04:10:07;2.70;99.90
6988;DHT22;3534;49.960;8.018;2024-01-16T04:12:33;2.70;99.90
6988;DHT22;3534;49.960;8.018;2024-01-16T04:15:00;2.70;99.90
6988;DHT22;3534;49.960;8.018;2024-01-16T04:17:27;2.60;99.90
6988;DHT22;3534;49.960;8.018;2024-01-16T04:19:54;2.60;99.90
6988;DHT22;3534;49.960;8.018;2024-01-16T04:22:20;2.60;99.90
6988;DHT22;3534;49.960;8.018;2024-01-16T04:24:48;2.60;99.90
6988;DHT22;3534;49.960;8.018;2024-01-16T04:27:15;2.60;99.90
6988;DHT22;3534;49.960;8.018;2024-01-16T04:29:42;2.60;99.90
6988;DHT22;3534;49.960;8.018;2024-01-16T04:32:09;2.60;99.90
6988;DHT22;3534;49.960;8.018;2024-01-16T04:34:35;2.60;99.90
6988;DHT22;3534;49.960;8.018;2024-01-16T04:37:02;2.70;99.90
6988;DHT22;3534;49.960;8.018;2024-01-16T04:39:29;2.70;99.90
6988;DHT22;3534;49.960;8.018;2024-01-16T04:41:58;2.70;99.90
6988;DHT22;3534;49.960;8.018;2024-01-16T04:44:24;2.70;99.90
6988;DHT22;3534;49.960;8.018;2024-01-16T04:46:51;2.60;99.90
6988;DHT22;3534;49.960;8.018;2024-01-16T04:49:18;2.60;99.90
6988;DHT22;3534;49.960;8.018;2024-01-16T04:51:44;2.60;99.90
6988;DHT22;3534;49.960;8.018;2024-01-16T04:54:11;2.60;99.90
6988;DHT22;3534;49.960;8.018;2024-01-16T04:56:38;2.60;99.90
6988;DHT22;3534;49.960;8.018;2024-01-16T04:59:06;2.50;99.90
6988;DHT22;3534;49.960;8.018;2024-01-16T05:01:33;2.60;99.90
6988;DHT22;3534;49.960;8.018;2024-01-16T05:03:59;2.60;99.90
6988;DHT22;3534;49.960;8.018;2024-01-16T05:06:26;2.60;99.90
6988;DHT22;3534;49.960;8.018;2024-01-16T05:08:53;2.60;99.90
6988;DHT22;3534;49.960;8.018;2024-01-16T05:11:19;2.60;99.90
6988;DHT22;3534;49.960;8.018;2024-01-16T05:13:46;2.60;99.90
6988;DHT22;3534;49.960;8.018;2024-01-16T05:16:14;2.60;99.90
6988;DHT22;3534;49.960;8.018;2024-01-16T05:18:41;2.60;99.90
6988;DHT22;3534;49.960;8.018;2024-01-16T05:21:08;2.60;99.90
6988;DHT22;3534;49.960;8.018;2024-01-16T05:23:35;2.60;99.90
6988;DHT22;3534;49.960;8.018;2024-01-16T05:26:02;2.50;99.90
6988;DHT22;3534;49.960;8.018;2024-01-16T05:28:29;2.50;99.90
6988;DHT22;3534;49.960;8.018;2024-01-16T05:30:56;2.50;99.90
6988;DHT22;3534;49.960;8.018;2024-01-16T05:33:24;2.50;99.90
6988;DHT22;3534;49.960;8.018;2024-01-16T05:35:51;2.50;99.90
6988;DHT22;3534;49.960;8.018;2024-01-16T05:38:17;2.50;99.90
6988;DHT22;3534;49.960;8.018;2024-01-16T05:40:44;2.40;99.90
6988;DHT22;3534;49.960;8.018;2024-01-16T05:43:11;2.40;99.90
6988;DHT22;3534;49.960;8.018;2024-01-16T05:45:37;2.30;99.90
6988;DHT22;3534;49.960;8.018;2024-01-16T05:48:04;2.30;99.90
6988;DHT22;3534;49.960;8.018;2024-01-16T05:50:33;2.30;99.90
6988;DHT22;3534;49.960;8.018;2024-01-16T05:53:00;2.20;99.90
6988;DHT22;3534;49.960;8.018;2024-01-16T05:55:27;2.20;99.90
6988;DHT22;3534;49.960;8.018;2024-01-16T05:57:54;2.20;99.90
6988;DHT22;3534;49.960;8.018;2024-01-16T06:00:21;2.10;99.90
6988;DHT22;3534;49.960;8.018;2024-01-16T06:02:48;2.10;99.90
6988;DHT22;3534;49.960;8.018;2024-01-16T06:05:15;2.10;99.90
6988;DHT22;3534;49.960;8.018;2024-01-16T06:07:43;2.10;99.90
6988;DHT22;3534;49.960;8.018;2024-01-16T06:10:11;2.00;99.90
6988;DHT22;3534;49.960;8.018;2024-01-16T06:12:38;2.00;99.90
6988;DHT22;3534;49.960;8.018;2024-01-16T06:15:06;2.00;99.90
6988;DHT22;3534;49.960;8.018;2024-01-16T06:17:33;1.90;99.90
6988;DHT22;3534;49.960;8.018;2024-01-16T06:20:00;1.90;99.90
6988;DHT22;3534;49.960;8.018;2024-01-16T06:22:26;1.90;99.90
6988;DHT22;3534;49.960;8.018;2024-01-16T06:24:55;1.90;99.90
6988;DHT22;3534;49.960;8.018;2024-01-16T06:27:21;1.90;99.90
6988;DHT22;3534;49.960;8.018;2024-01-16T06:29:48;1.90;99.90
6988;DHT22;3534;49.960;8.018;2024-01-16T06:32:16;1.90;99.90
6988;DHT22;3534;49.960;8.018;2024-01-16T06:34:43;2.00;99.90
6988;DHT22;3534;49.960;8.018;2024-01-16T06:37:10;2.00;99.90
6988;DHT22;3534;49.960;8.018;2024-01-16T06:39:37;2.00;99.90
6988;DHT22;3534;49.960;8.018;2024-01-16T06:42:06;2.00;99.90
6988;DHT22;3534;49.960;8.018;2024-01-16T06:44:33;1.90;99.90
6988;DHT22;3534;49.960;8.018;2024-01-16T06:47:00;1.90;99.90
6988;DHT22;3534;49.960;8.018;2024-01-16T06:49:26;1.90;99.90
6988;DHT22;3534;49.960;8.018;2024-01-16T06:51:53;1.90;99.90
6988;DHT22;3534;49.960;8.018;2024-01-16T06:54:20;1.90;99.90
6988;DHT22;3534;49.960;8.018;2024-01-16T06:56:48;1.90;99.90
6988;DHT22;3534;49.960;8.018;2024-01-16T06:59:16;1.80;99.90
6988;DHT22;3534;49.960;8.018;2024-01-16T07:01:44;1.80;99.90
6988;DHT22;3534;49.960;8.018;2024-01-16T07:04:11;1.80;99.90
6988;DHT22;3534;49.960;8.018;2024-01-16T07:06:39;1.70;99.90
6988;DHT22;3534;49.960;8.018;2024-01-16T07:09:06;1.70;99.90
6988;DHT22;3534;49.960;8.018;2024-01-16T07:11:36;1.70;99.90
6988;DHT22;3534;49.960;8.018;2024-01-16T07:14:03;1.70;99.90
6988;DHT22;3534;49.960;8.018;2024-01-16T07:16:31;1.70;99.90
6988;DHT22;3534;49.960;8.018;2024-01-16T07:18:58;1.70;99.90
6988;DHT22;3534;49.960;8.018;2024-01-16T07:21:25;1.70;99.90
6988;DHT22;3534;49.960;8.018;2024-01-16T07:23:51;1.70;99.90
6988;DHT22;3534;49.960;8.018;2024-01-16T07:26:18;1.60;99.90
6988;DHT22;3534;49.960;8.018;2024-01-16T07:28:45;1.60;99.90
6988;DHT22;3534;49.960;8.018;2024-01-16T07:31:13;1.60;99.90
6988;DHT22;3534;49.960;8.018;2024-01-16T07:33:41;1.60;99.90
6988;DHT22;3534;49.960;8.018;2024-01-16T07:36:08;1.60;99.90
6988;DHT22;3534;49.960;8.018;2024-01-16T07:38:35;1.60;99.90
6988;DHT22;3534;49.960;8.018;2024-01-16T07:41:03;1.70;99.90
6988;DHT22;3534;49.960;8.018;2024-01-16T07:43:30;1.70;99.90
6988;DHT22;3534;49.960;8.018;2024-01-16T07:45:57;1.60;99.90
6988;DHT22;3534;49.960;8.018;2024-01-16T07:48:24;1.70;99.90
6988;DHT22;3534;49.960;8.018;2024-01-16T07:50:52;1.60;99.90
6988;DHT22;3534;49.960;8.018;2024-01-16T07:53:19;1.60;99.90
6988;DHT22;3534;49.960;8.018;2024-01-16T07:55:46;1.60;99.90
6988;DHT22;3534;49.960;8.018;2024-01-16T07:58:13;1.60;99.90
6988;DHT22;3534;49.960;8.018;2024-01-16T08:00:40;1.60;99.90
6988;DHT22;3534;49.960;8.018;2024-01-16T08:03:08;1.60;99.90
6988;DHT22;3534;49.960;8.018;2024-01-16T08:05:36;1.70;99.90
6988;DHT22;3534;49.960;8.018;2024-01-16T08:08:07;1.70;99.90
6988;DHT22;3534;49.960;8.018;2024-01-16T08:10:35;1.70;99.90
6988;DHT22;3534;49.960;8.018;2024-01-16T08:13:01;1.70;99.90
6988;DHT22;3534;49.960;8.018;2024-01-16T08:15:28;1.70;99.90
6988;DHT22;3534;49.960;8.018;2024-01-16T08:17:55;1.70;99.90
6988;DHT22;3534;49.960;8.018;2024-01-16T08:20:22;1.70;99.90
6988;DHT22;3534;49.960;8.018;2024-01-16T08:22:49;1.70;99.90
6988;DHT22;3534;49.960;8.018;2024-01-16T08:25:17;1.70;99.90
6988;DHT22;3534;49.960;8.018;2024-01-16T08:27:44;1.70;99.90
6988;DHT22;3534;49.960;8.018;2024-01-16T08:30:11;1.70;99.90
6988;DHT22;3534;49.960;8.018;2024-01-16T08:32:38;1.80;99.90
6988;DHT22;3534;49.960;8.018;2024-01-16T08:35:06;1.80;99.90
6988;DHT22;3534;49.960;8.018;2024-01-16T08:37:34;1.80;99.90
6988;DHT22;3534;49.960;8.018;2024-01-16T08:40:01;1.80;99.90
6988;DHT22;3534;49.960;8.018;2024-01-16T08:42:30;1.90;99.90
6988;DHT22;3534;49.960;8.018;2024-01-16T08:44:57;1.90;99.90
6988;DHT22;3534;49.960;8.018;2024-01-16T08:47:23;2.00;99.90
6988;DHT22;3534;49.960;8.018;2024-01-16T08:49:50;2.00;99.90
6988;DHT22;3534;49.960;8.018;2024-01-16T08:52:17;2.00;99.90
6988;DHT22;3534;49.960;8.018;2024-01-16T08:54:44;2.00;99.90
6988;DHT22;3534;49.960;8.018;2024-01-16T08:57:11;2.10;99.90
6988;DHT22;3534;49.960;8.018;2024-01-16T08:59:40;2.10;99.90
6988;DHT22;3534;49.960;8.018;2024-01-16T09:02:07;2.20;99.90
6988;DHT22;3534;49.960;8.018;2024-01-16T09:04:34;2.20;99.90
6988;DHT22;3534;49.960;8.018;2024-01-16T09:07:00;2.30;99.90
6988;DHT22;3534;49.960;8.018;2024-01-16T09:09:30;2.30;99.90
6988;DHT22;3534;49.960;8.018;2024-01-16T09:11:56;2.40;99.90
6988;DHT22;3534;49.960;8.018;2024-01-16T09:14:24;2.40;99.90
6988;DHT22;3534;49.960;8.018;2024-01-16T09:16:52;2.50;99.90
6988;DHT22;3534;49.960;8.018;2024-01-16T09:19:19;2.50;99.90
6988;DHT22;3534;49.960;8.018;2024-01-16T09:21:46;2.50;99.90
6988;DHT22;3534;49.960;8.018;2024-01-16T09:24:13;2.60;99.90
6988;DHT22;3534;49.960;8.018;2024-01-16T09:26:40;2.60;99.90
6988;DHT22;3534;49.960;8.018;2024-01-16T09:29:07;2.60;99.90
6988;DHT22;3534;49.960;8.018;2024-01-16T09:31:35;2.60;99.90
6988;DHT22;3534;49.960;8.018;2024-01-16T09:34:03;2.70;99.90
6988;DHT22;3534;49.960;8.018;2024-01-16T09:36:30;2.70;99.90
6988;DHT22;3534;49.960;8.018;2024-01-16T09:38:57;2.70;99.90
6988;DHT22;3534;49.960;8.018;2024-01-16T09:41:24;2.80;99.90
6988;DHT22;3534;49.960;8.018;2024-01-16T09:43:51;2.80;99.90
6988;DHT22;3534;49.960;8.018;2024-01-16T09:46:20;2.80;99.90
6988;DHT22;3534;49.960;8.018;2024-01-16T09:48:51;2.80;99.90
6988;DHT22;3534;49.960;8.018;2024-01-16T09:51:21;2.80;99.90
6988;DHT22;3534;49.960;8.018;2024-01-16T09:53:48;2.80;99.90
6988;DHT22;3534;49.960;8.018;2024-01-16T09:56:16;2.80;99.90
6988;DHT22;3534;49.960;8.018;2024-01-16T09:58:43;2.80;99.90
6988;DHT22;3534;49.960;8.018;2024-01-16T10:01:11;2.80;99.90
6988;DHT22;3534;49.960;8.018;2024-01-16T10:03:38;2.80;99.90
6988;DHT22;3534;49.960;8.018;2024-01-16T10:06:07;2.80;99.90
6988;DHT22;3534;49.960;8.018;2024-01-16T10:08:35;2.90;99.90
6988;DHT22;3534;49.960;8.018;2024-01-16T10:11:03;3.00;99.90
6988;DHT22;3534;49.960;8.018;2024-01-16T10:13:31;3.00;99.90
6988;DHT22;3534;49.960;8.018;2024-01-16T10:15:59;3.00;99.90
6988;DHT22;3534;49.960;8.018;2024-01-16T10:18:27;3.10;99.90
6988;DHT22;3534;49.960;8.018;2024-01-16T10:20:55;3.10;99.90
6988;DHT22;3534;49.960;8.018;2024-01-16T10:23:23;3.20;99.90
6988;DHT22;3534;49.960;8.018;2024-01-16T10:28:43;3.20;99.90
6988;DHT22;3534;49.960;8.018;2024-01-16T10:31:11;3.30;99.90
6988;DHT22;3534;49.960;8.018;2024-01-16T10:33:39;3.40;99.90
6988;DHT22;3534;49.960;8.018;2024-01-16T10:38:37;3.50;99.90
6988;DHT22;3534;49.960;8.018;2024-01-16T10:41:09;3.50;99.90
6988;DHT22;3534;49.960;8.018;2024-01-16T10:43:36;3.60;99.90
6988;DHT22;3534;49.960;8.018;2024-01-16T10:46:12;3.60;99.90
6988;DHT22;3534;49.960;8.018;2024-01-16T10:48:41;3.60;99.90
6988;DHT22;3534;49.960;8.018;2024-01-16T10:51:09;3.60;99.90
6988;DHT22;3534;49.960;8.018;2024-01-16T10:53:42;3.70;99.90
6988;DHT22;3534;49.960;8.018;2024-01-16T10:56:10;3.80;99.90
6988;DHT22;3534;49.960;8.018;2024-01-16T10:58:40;3.80;99.90
6988;DHT22;3534;49.960;8.018;2024-01-16T11:01:13;3.90;99.90
6988;DHT22;3534;49.960;8.018;2024-01-16T11:03:43;3.90;99.90
6988;DHT22;3534;49.960;8.018;2024-01-16T11:06:15;4.00;99.90
6988;DHT22;3534;49.960;8.018;2024-01-16T11:08:42;4.10;99.90
6988;DHT22;3534;49.960;8.018;2024-01-16T11:11:09;4.10;99.90
6988;DHT22;3534;49.960;8.018;2024-01-16T11:13:38;4.20;99.90
6988;DHT22;3534;49.960;8.018;2024-01-16T11:16:05;4.30;99.90
6988;DHT22;3534;49.960;8.018;2024-01-16T11:18:34;4.40;99.90
6988;DHT22;3534;49.960;8.018;2024-01-16T11:21:02;4.60;99.90
6988;DHT22;3534;49.960;8.018;2024-01-16T11:23:30;4.80;99.90
6988;DHT22;3534;49.960;8.018;2024-01-16T11:25:57;5.00;99.90
6988;DHT22;3534;49.960;8.018;2024-01-16T11:28:27;5.10;99.90
6988;DHT22;3534;49.960;8.018;2024-01-16T11:30:55;5.30;99.90
6988;DHT22;3534;49.960;8.018;2024-01-16T11:33:45;5.50;99.90
6988;DHT22;3534;49.960;8.018;2024-01-16T11:36:49;5.70;99.90
6988;DHT22;3534;49.960;8.018;2024-01-16T11:39:18;5.90;99.90
6988;DHT22;3534;49.960;8.018;2024-01-16T11:41:52;6.20;99.90
6988;DHT22;3534;49.960;8.018;2024-01-16T11:44:40;6.40;99.90
6988;DHT22;3534;49.960;8.018;2024-01-16T11:47:08;6.60;99.90
6988;DHT22;3534;49.960;8.018;2024-01-16T11:49:36;6.70;99.90
6988;DHT22;3534;49.960;8.018;2024-01-16T11:52:02;6.80;99.90
6988;DHT22;3534;49.960;8.018;2024-01-16T11:54:29;7.00;99.90
6988;DHT22;3534;49.960;8.018;2024-01-16T11:57:26;7.10;99.90
6988;DHT22;3534;49.960;8.018;2024-01-16T11:59:59;7.10;99.90
6988;DHT22;3534;49.960;8.018;2024-01-16T12:02:38;7.30;99.90
6988;DHT22;3534;49.960;8.018;2024-01-16T12:05:11;7.50;99.90
6988;DHT22;3534;49.960;8.018;2024-01-16T12:07:46;7.40;99.90
6988;DHT22;3534;49.960;8.018;2024-01-16T12:10:14;7.50;99.90
6988;DHT22;3534;49.960;8.018;2024-01-16T12:12:41;7.70;99.90
6988;DHT22;3534;49.960;8.018;2024-01-16T12:15:13;7.80;99.90
6988;DHT22;3534;49.960;8.018;2024-01-16T12:17:54;7.80;99.90
6988;DHT22;3534;49.960;8.018;2024-01-16T12:20:24;7.90;99.90
6988;DHT22;3534;49.960;8.018;2024-01-16T12:22:55;7.90;99.90
6988;DHT22;3534;49.960;8.018;2024-01-16T12:25:22;7.60;99.90
6988;DHT22;3534;49.960;8.018;2024-01-16T12:27:55;7.70;99.90
6988;DHT22;3534;49.960;8.018;2024-01-16T12:30:24;7.80;99.90
6988;DHT22;3534;49.960;8.018;2024-01-16T12:32:51;8.00;99.90
6988;DHT22;3534;49.960;8.018;2024-01-16T12:35:23;8.30;99.90
6988;DHT22;3534;49.960;8.018;2024-01-16T12:37:59;8.40;99.90
6988;DHT22;3534;49.960;8.018;2024-01-16T12:40:26;8.60;99.90
6988;DHT22;3534;49.960;8.018;2024-01-16T12:42:52;8.80;99.90
6988;DHT22;3534;49.960;8.018;2024-01-16T12:45:20;8.90;99.90
6988;DHT22;3534;49.960;8.018;2024-01-16T12:47:50;9.10;99.90
6988;DHT22;3534;49.960;8.018;2024-01-16T12:50:20;9.20;99.90
6988;DHT22;3534;49.960;8.018;2024-01-16T12:52:48;9.30;99.90
6988;DHT22;3534;49.960;8.018;2024-01-16T12:55:16;9.60;99.90
6988;DHT22;3534;49.960;8.018;2024-01-16T12:57:43;9.40;99.90
6988;DHT22;3534;49.960;8.018;2024-01-16T13:00:28;9.50;99.90
6988;DHT22;3534;49.960;8.018;2024-01-16T13:02:55;9.40;99.90
6988;DHT22;3534;49.960;8.018;2024-01-16T13:05:24;9.50;99.90
6988;DHT22;3534;49.960;8.018;2024-01-16T13:08:01;9.50;99.90
6988;DHT22;3534;49.960;8.018;2024-01-16T13:10:29;9.40;99.90
6988;DHT22;3534;49.960;8.018;2024-01-16T13:13:11;9.50;99.90
6988;DHT22;3534;49.960;8.018;2024-01-16T13:15:38;9.80;99.90
6988;DHT22;3534;49.960;8.018;2024-01-16T13:18:05;9.90;99.90
6988;DHT22;3534;49.960;8.018;2024-01-16T13:20:32;10.00;99.90
6988;DHT22;3534;49.960;8.018;2024-01-16T13:23:00;10.10;99.90
6988;DHT22;3534;49.960;8.018;2024-01-16T13:25:28;10.20;99.90
6988;DHT22;3534;49.960;8.018;2024-01-16T13:27:55;10.30;99.90
6988;DHT22;3534;49.960;8.018;2024-01-16T13:30:22;10.40;99.90
6988;DHT22;3534;49.960;8.018;2024-01-16T13:32:49;10.40;99.90
6988;DHT22;3534;49.960;8.018;2024-01-16T13:35:16;10.20;99.90
6988;DHT22;3534;49.960;8.018;2024-01-16T13:37:43;10.20;99.90
6988;DHT22;3534;49.960;8.018;2024-01-16T13:40:11;10.20;99.90
6988;DHT22;3534;49.960;8.018;2024-01-16T13:42:40;10.20;99.90
6988;DHT22;3534;49.960;8.018;2024-01-16T13:45:08;10.10;99.90
6988;DHT22;3534;49.960;8.018;2024-01-16T13:47:35;9.80;99.90
6988;DHT22;3534;49.960;8.018;2024-01-16T13:50:05;9.70;99.90
6988;DHT22;3534;49.960;8.018;2024-01-16T13:52:32;9.50;99.90
6988;DHT22;3534;49.960;8.018;2024-01-16T13:54:59;9.30;99.90
6988;DHT22;3534;49.960;8.018;2024-01-16T13:57:29;9.20;99.90
6988;DHT22;3534;49.960;8.018;2024-01-16T13:59:56;9.00;99.90
6988;DHT22;3534;49.960;8.018;2024-01-16T14:02:23;8.70;99.90
6988;DHT22;3534;49.960;8.018;2024-01-16T14:04:51;8.60;99.90
6988;DHT22;3534;49.960;8.018;2024-01-16T14:07:18;8.50;99.90
6988;DHT22;3534;49.960;8.018;2024-01-16T14:09:44;8.40;99.90
6988;DHT22;3534;49.960;8.018;2024-01-16T14:12:11;8.20;99.90
6988;DHT22;3534;49.960;8.018;2024-01-16T14:14:40;8.20;99.90
6988;DHT22;3534;49.960;8.018;2024-01-16T14:17:07;8.10;99.90
6988;DHT22;3534;49.960;8.018;2024-01-16T14:19:34;8.20;99.90
6988;DHT22;3534;49.960;8.018;2024-01-16T14:22:01;8.40;99.90
6988;DHT22;3534;49.960;8.018;2024-01-16T14:24:28;8.60;99.90
6988;DHT22;3534;49.960;8.018;2024-01-16T14:26:55;8.80;99.90
6988;DHT22;3534;49.960;8.018;2024-01-16T14:29:22;9.00;99.90
6988;DHT22;3534;49.960;8.018;2024-01-16T14:31:50;9.20;99.90
6988;DHT22;3534;49.960;8.018;2024-01-16T14:34:17;9.40;99.90
6988;DHT22;3534;49.960;8.018;2024-01-16T14:36:45;9.50;99.90
6988;DHT22;3534;49.960;8.018;2024-01-16T14:39:11;9.50;99.90
6988;DHT22;3534;49.960;8.018;2024-01-16T14:41:42;9.50;99.90
6988;DHT22;3534;49.960;8.018;2024-01-16T14:44:09;9.60;99.90
6988;DHT22;3534;49.960;8.018;2024-01-16T14:46:36;9.70;99.90
6988;DHT22;3534;49.960;8.018;2024-01-16T14:49:04;9.70;99.90
6988;DHT22;3534;49.960;8.018;2024-01-16T14:51:31;9.70;99.90
6988;DHT22;3534;49.960;8.018;2024-01-16T14:53:58;9.70;99.90
6988;DHT22;3534;49.960;8.018;2024-01-16T14:56:27;9.70;99.90
6988;DHT22;3534;49.960;8.018;2024-01-16T14:58:53;9.70;99.90
6988;DHT22;3534;49.960;8.018;2024-01-16T15:01:20;9.60;99.90
6988;DHT22;3534;49.960;8.018;2024-01-16T15:03:47;9.50;99.90
6988;DHT22;3534;49.960;8.018;2024-01-16T15:06:15;9.50;99.90
6988;DHT22;3534;49.960;8.018;2024-01-16T15:08:42;9.50;99.80
6988;DHT22;3534;49.960;8.018;2024-01-16T15:11:09;9.60;99.60
6988;DHT22;3534;49.960;8.018;2024-01-16T15:13:36;9.60;99.50
6988;DHT22;3534;49.960;8.018;2024-01-16T15:16:03;9.50;99.30
6988;DHT22;3534;49.960;8.018;2024-01-16T15:18:30;9.50;99.50
6988;DHT22;3534;49.960;8.018;2024-01-16T15:20:58;9.20;99.50
6988;DHT22;3534;49.960;8.018;2024-01-16T15:23:26;8.80;99.90
6988;DHT22;3534;49.960;8.018;2024-01-16T15:25:53;8.50;99.90
6988;DHT22;3534;49.960;8.018;2024-01-16T15:28:20;8.00;99.90
6988;DHT22;3534;49.960;8.018;2024-01-16T15:30:47;7.80;99.90
6988;DHT22;3534;49.960;8.018;2024-01-16T15:33:13;7.70;99.90
6988;DHT22;3534;49.960;8.018;2024-01-16T15:35:40;7.80;99.90
6988;DHT22;3534;49.960;8.018;2024-01-16T15:38:07;7.60;99.90
6988;DHT22;3534;49.960;8.018;2024-01-16T15:40:37;7.50;99.90
6988;DHT22;3534;49.960;8.018;2024-01-16T15:43:03;7.40;99.90
6988;DHT22;3534;49.960;8.018;2024-01-16T15:45:30;7.50;99.90
6988;DHT22;3534;49.960;8.018;2024-01-16T15:47:57;7.40;99.90
6988;DHT22;3534;49.960;8.018;2024-01-16T15:50:23;7.40;99.90
6988;DHT22;3534;49.960;8.018;2024-01-16T15:52:52;7.20;99.90
6988;DHT22;3534;49.960;8.018;2024-01-16T15:55:19;7.10;99.90
6988;DHT22;3534;49.960;8.018;2024-01-16T15:57:47;6.90;99.90
6988;DHT22;3534;49.960;8.018;2024-01-16T16:00:15;7.00;99.90
6988;DHT22;3534;49.960;8.018;2024-01-16T16:02:41;7.00;99.90
6988;DHT22;3534;49.960;8.018;2024-01-16T16:05:11;7.10;99.90
6988;DHT22;3534;49.960;8.018;2024-01-16T16:07:38;7.10;99.90
6988;DHT22;3534;49.960;8.018;2024-01-16T16:10:06;7.20;99.90
6988;DHT22;3534;49.960;8.018;2024-01-16T16:12:34;7.20;99.90
6988;DHT22;3534;49.960;8.018;2024-01-16T16:15:03;7.20;99.90
6988;DHT22;3534;49.960;8.018;2024-01-16T16:17:30;7.10;99.90
6988;DHT22;3534;49.960;8.018;2024-01-16T16:19:57;7.10;99.90
6988;DHT22;3534;49.960;8.018;2024-01-16T16:22:24;7.00;99.90
6988;DHT22;3534;49.960;8.018;2024-01-16T16:24:51;6.90;99.90
6988;DHT22;3534;49.960;8.018;2024-01-16T16:27:25;6.80;99.90